createdAt,value
2018-08-03T00:00:17.673Z,18.90
2018-08-03T00:02:46.628Z,18.90
2018-08-03T00:05:15.848Z,18.90
2018-08-03T00:07:44.739Z,18.90
2018-08-03T00:10:13.645Z,18.80
2018-08-03T00:12:42.514Z,18.90
2018-08-03T00:15:11.366Z,18.90
2018-08-03T00:17:40.252Z,18.80
2018-08-03T00:20:09.489Z,18.80
2018-08-03T00:22:38.798Z,18.80
2018-08-03T00:25:08.223Z,18.80
2018-08-03T00:27:37.342Z,18.80
2018-08-03T00:30:06.686Z,18.70
2018-08-03T00:32:35.642Z,18.70
2018-08-03T00:35:04.723Z,18.70
2018-08-03T00:37:33.662Z,18.70
2018-08-03T00:40:02.671Z,18.70
2018-08-03T00:42:31.524Z,18.70
2018-08-03T00:45:00.361Z,18.70
2018-08-03T00:47:29.246Z,18.70
2018-08-03T00:49:58.459Z,18.70
2018-08-03T00:52:27.332Z,18.70
2018-08-03T00:54:56.212Z,18.60
2018-08-03T00:57:25.105Z,18.60
2018-08-03T00:59:53.997Z,18.60
2018-08-03T01:02:22.866Z,18.60
2018-08-03T01:04:52.079Z,18.60
2018-08-03T01:07:20.977Z,18.60
2018-08-03T01:09:50.484Z,18.60
2018-08-03T01:12:19.387Z,18.60
2018-08-03T01:14:48.276Z,18.50
2018-08-03T01:17:17.178Z,18.50
2018-08-03T01:19:46.040Z,18.50
2018-08-03T01:22:14.960Z,18.50
2018-08-03T01:24:44.019Z,18.50
2018-08-03T01:27:13.050Z,18.50
2018-08-03T01:29:41.963Z,18.50
2018-08-03T01:32:11.199Z,18.50
2018-08-03T01:34:40.088Z,18.50
2018-08-03T01:37:09.157Z,18.50
2018-08-03T01:39:38.027Z,18.40
2018-08-03T01:42:07.039Z,18.40
2018-08-03T01:44:35.962Z,18.40
2018-08-03T01:47:05.166Z,18.30
2018-08-03T01:49:34.372Z,18.30
2018-08-03T01:52:03.601Z,18.30
2018-08-03T01:54:32.471Z,18.20
2018-08-03T01:57:01.412Z,18.20
2018-08-03T01:59:29.934Z,18.20
2018-08-03T02:01:58.225Z,18.10
2018-08-03T02:04:27.099Z,18.10
2018-08-03T02:06:55.757Z,18.10
2018-08-03T02:09:24.240Z,18.00
2018-08-03T02:11:52.538Z,18.00
2018-08-03T02:14:21.409Z,17.90
2018-08-03T02:16:49.690Z,17.90
2018-08-03T02:19:18.021Z,17.90
2018-08-03T02:21:46.919Z,17.80
2018-08-03T02:24:16.113Z,17.80
2018-08-03T02:26:44.438Z,17.80
2018-08-03T02:29:12.727Z,17.80
2018-08-03T02:34:09.088Z,17.80
2018-08-03T02:36:37.987Z,17.80
2018-08-03T02:39:09.516Z,17.80
2018-08-03T02:41:38.086Z,17.80
2018-08-03T02:44:06.575Z,17.70
2018-08-03T02:46:35.599Z,17.70
2018-08-03T02:49:03.931Z,17.70
2018-08-03T02:51:32.608Z,17.70
2018-08-03T02:54:01.024Z,17.70
2018-08-03T02:56:30.148Z,17.70
2018-08-03T02:58:58.458Z,17.70
2018-08-03T03:01:26.777Z,17.70
2018-08-03T03:03:55.171Z,17.70
2018-08-03T03:06:23.531Z,17.70
2018-08-03T03:08:51.827Z,17.70
2018-08-03T03:11:20.142Z,17.70
2018-08-03T03:13:49.058Z,17.70
2018-08-03T03:16:17.947Z,17.60
2018-08-03T03:18:46.814Z,17.70
2018-08-03T03:21:15.698Z,17.70
2018-08-03T03:23:44.007Z,17.70
2018-08-03T03:26:12.387Z,17.60
2018-08-03T03:28:41.317Z,17.60
2018-08-03T03:31:09.662Z,17.50
2018-08-03T03:33:38.863Z,17.60
2018-08-03T03:38:35.224Z,17.60
2018-08-03T03:41:03.539Z,17.50
2018-08-03T03:43:32.448Z,17.50
2018-08-03T03:46:00.723Z,17.50
2018-08-03T03:48:29.613Z,17.50
2018-08-03T03:50:58.518Z,17.50
2018-08-03T03:53:26.998Z,17.50
2018-08-03T03:55:55.772Z,17.50
2018-08-03T03:58:24.330Z,17.50
2018-08-03T04:00:52.636Z,17.50
2018-08-03T04:03:20.923Z,17.40
2018-08-03T04:05:50.120Z,17.40
2018-08-03T04:08:18.439Z,17.30
2018-08-03T04:10:46.784Z,17.30
2018-08-03T04:13:15.671Z,17.30
2018-08-03T04:15:44.574Z,17.30
2018-08-03T04:18:20.096Z,17.30
2018-08-03T04:20:48.793Z,17.30
2018-08-03T04:23:17.259Z,17.30
2018-08-03T04:25:45.591Z,17.30
2018-08-03T04:30:42.849Z,17.30
2018-08-03T04:33:11.630Z,17.30
2018-08-03T04:35:40.514Z,17.30
2018-08-03T04:38:09.393Z,17.40
2018-08-03T04:40:38.791Z,17.40
2018-08-03T04:43:07.099Z,17.40
2018-08-03T04:45:36.035Z,17.50
2018-08-03T04:48:05.219Z,17.50
2018-08-03T04:50:34.127Z,17.50
2018-08-03T04:53:02.996Z,17.50
2018-08-03T04:55:31.894Z,17.60
2018-08-03T04:58:02.070Z,17.60
2018-08-03T05:00:31.244Z,17.60
2018-08-03T05:03:00.142Z,17.70
2018-08-03T05:05:29.417Z,17.80
2018-08-03T05:07:58.634Z,17.80
2018-08-03T05:10:27.512Z,17.80
2018-08-03T05:12:56.446Z,17.90
2018-08-03T05:15:25.729Z,17.90
2018-08-03T05:17:55.182Z,18.00
2018-08-03T05:20:24.083Z,18.10
2018-08-03T05:22:52.953Z,18.20
2018-08-03T05:25:21.861Z,18.30
2018-08-03T05:30:19.564Z,18.50
2018-08-03T05:32:48.622Z,18.60
2018-08-03T05:35:17.492Z,18.70
2018-08-03T05:37:46.441Z,18.90
2018-08-03T05:40:15.471Z,19.10
2018-08-03T05:42:44.411Z,19.20
2018-08-03T05:45:13.309Z,19.50
2018-08-03T05:47:42.214Z,19.60
2018-08-03T05:50:11.196Z,19.80
2018-08-03T05:52:40.318Z,20.10
2018-08-03T05:55:09.238Z,20.20
2018-08-03T06:00:06.802Z,20.60
2018-08-03T06:02:35.429Z,20.80
2018-08-03T06:05:05.241Z,21.00
2018-08-03T06:07:34.137Z,21.20
2018-08-03T06:10:03.441Z,21.40
2018-08-03T06:12:32.537Z,21.60
2018-08-03T06:15:01.493Z,21.80
2018-08-03T06:17:30.397Z,22.00
2018-08-03T06:19:59.322Z,22.30
2018-08-03T06:22:28.244Z,22.50
2018-08-03T06:24:57.712Z,22.80
2018-08-03T06:27:26.573Z,23.00
2018-08-03T06:29:55.487Z,23.30
2018-08-03T06:32:24.408Z,23.40
2018-08-03T06:34:53.311Z,23.70
2018-08-03T06:37:22.218Z,23.90
2018-08-03T06:39:51.379Z,24.00
2018-08-03T06:42:20.282Z,24.30
2018-08-03T06:44:49.172Z,24.50
2018-08-03T06:47:18.078Z,24.70
2018-08-03T06:49:46.922Z,24.90
2018-08-03T06:52:15.830Z,25.10
2018-08-03T06:54:44.702Z,25.30
2018-08-03T06:57:13.599Z,25.50
2018-08-03T06:59:42.540Z,25.70
2018-08-03T07:02:11.379Z,25.80
2018-08-03T07:04:40.289Z,25.90
2018-08-03T07:07:09.195Z,26.00
2018-08-03T07:09:38.046Z,26.10
2018-08-03T07:12:06.935Z,26.20
2018-08-03T07:14:35.876Z,26.40
2018-08-03T07:17:04.898Z,26.50
2018-08-03T07:19:33.771Z,26.60
2018-08-03T07:22:03.025Z,26.70
2018-08-03T07:27:00.569Z,26.80
2018-08-03T07:29:29.451Z,26.90
2018-08-03T07:31:58.712Z,27.00
2018-08-03T07:34:27.617Z,27.10
2018-08-03T07:36:56.555Z,27.10
2018-08-03T07:41:54.276Z,27.10
2018-08-03T07:44:23.220Z,27.20
2018-08-03T07:46:52.258Z,27.20
2018-08-03T07:49:21.202Z,27.20
2018-08-03T07:51:50.124Z,27.30
2018-08-03T07:54:19.367Z,27.40
2018-08-03T07:56:48.271Z,27.40
2018-08-03T07:59:19.155Z,27.40
2018-08-03T08:01:47.762Z,27.30
2018-08-03T08:04:16.529Z,27.30
2018-08-03T08:06:45.494Z,27.30
2018-08-03T08:09:14.123Z,27.40
2018-08-03T08:11:42.971Z,27.40
2018-08-03T08:14:11.859Z,27.40
2018-08-03T08:16:40.800Z,27.50
2018-08-03T08:19:09.778Z,27.60
2018-08-03T08:21:39.059Z,27.60
2018-08-03T08:25:36.901Z,27.60
2018-08-03T08:28:06.583Z,27.60
2018-08-03T08:30:35.458Z,27.70
2018-08-03T08:33:04.442Z,27.60
2018-08-03T08:35:33.072Z,27.70
2018-08-03T08:38:01.964Z,27.70
2018-08-03T08:42:59.263Z,27.70
2018-08-03T08:45:27.961Z,27.70
2018-08-03T08:47:57.275Z,27.60
2018-08-03T08:50:26.531Z,27.70
2018-08-03T08:52:55.460Z,27.80
2018-08-03T08:55:24.138Z,27.80
2018-08-03T08:57:53.366Z,27.80
2018-08-03T09:00:22.031Z,27.90
2018-08-03T09:05:19.322Z,27.80
2018-08-03T09:07:47.952Z,27.90
2018-08-03T09:10:17.162Z,27.90
2018-08-03T09:12:45.808Z,27.90
2018-08-03T09:15:14.594Z,28.00
2018-08-03T09:17:43.315Z,28.00
2018-08-03T09:20:12.199Z,28.10
2018-08-03T09:22:41.130Z,28.10
2018-08-03T09:25:09.800Z,28.10
2018-08-03T09:27:38.432Z,28.20
2018-08-03T09:30:08.559Z,28.20
2018-08-03T09:32:37.170Z,28.30
2018-08-03T09:35:06.338Z,28.50
2018-08-03T09:37:34.970Z,28.50
2018-08-03T09:40:03.633Z,28.60
2018-08-03T09:42:32.311Z,28.70
2018-08-03T09:45:00.912Z,28.70
2018-08-03T09:47:30.189Z,28.70
2018-08-03T09:49:58.909Z,28.80
2018-08-03T09:52:27.578Z,28.80
2018-08-03T09:54:56.151Z,28.90
2018-08-03T09:57:24.790Z,28.90
2018-08-03T09:59:53.766Z,28.90
2018-08-03T10:02:22.372Z,28.90
2018-08-03T10:04:51.013Z,29.00
2018-08-03T10:07:19.662Z,28.90
2018-08-03T10:09:48.437Z,28.90
2018-08-03T10:12:17.163Z,28.90
2018-08-03T10:14:45.838Z,28.90
2018-08-03T10:17:14.488Z,29.00
2018-08-03T10:19:44.743Z,29.10
2018-08-03T10:22:13.348Z,29.10
2018-08-03T10:24:41.923Z,29.10
2018-08-03T10:27:10.924Z,29.10
2018-08-03T10:29:39.667Z,29.20
2018-08-03T10:32:08.552Z,29.30
2018-08-03T10:34:37.169Z,29.30
2018-08-03T10:37:05.846Z,29.40
2018-08-03T10:42:05.384Z,29.50
2018-08-03T10:44:34.005Z,29.60
2018-08-03T10:47:02.680Z,29.60
2018-08-03T10:49:31.443Z,29.60
2018-08-03T10:52:00.068Z,29.60
2018-08-03T10:54:28.678Z,29.60
2018-08-03T10:56:57.297Z,29.60
2018-08-03T10:59:26.203Z,29.60
2018-08-03T11:01:54.999Z,29.60
2018-08-03T11:04:23.644Z,29.70
2018-08-03T11:06:52.367Z,29.70
2018-08-03T11:09:21.432Z,29.80
2018-08-03T11:11:50.133Z,29.70
2018-08-03T11:14:18.755Z,29.70
2018-08-03T11:16:47.488Z,29.80
2018-08-03T11:19:16.161Z,29.80
2018-08-03T11:24:13.645Z,29.90
2018-08-03T11:26:42.354Z,30.00
2018-08-03T11:29:10.942Z,30.10
2018-08-03T11:31:39.624Z,30.10
2018-08-03T11:34:08.268Z,30.10
2018-08-03T11:36:36.911Z,30.00
2018-08-03T11:41:36.008Z,30.10
2018-08-03T11:44:04.878Z,30.20
2018-08-03T11:46:33.547Z,30.20
2018-08-03T11:49:02.651Z,30.30
2018-08-03T11:51:31.835Z,30.30
2018-08-03T11:54:00.503Z,30.30
2018-08-03T11:56:29.645Z,30.50
2018-08-03T11:58:58.317Z,30.60
2018-08-03T12:01:26.986Z,30.60
2018-08-03T12:03:55.806Z,30.60
2018-08-03T12:06:24.468Z,30.70
2018-08-03T12:08:53.119Z,30.70
2018-08-03T12:11:21.769Z,30.80
2018-08-03T12:13:50.421Z,30.80
2018-08-03T12:16:19.032Z,30.90
2018-08-03T12:18:47.691Z,31.00
2018-08-03T12:21:16.266Z,31.00
2018-08-03T12:23:44.923Z,31.00
2018-08-03T12:26:13.543Z,31.10
2018-08-03T12:28:42.195Z,31.10
2018-08-03T12:31:10.909Z,31.10
2018-08-03T12:33:39.683Z,31.20
2018-08-03T12:36:08.788Z,31.40
2018-08-03T12:38:37.395Z,31.40
2018-08-03T12:41:06.029Z,31.50
2018-08-03T12:46:03.312Z,31.40
2018-08-03T12:48:31.911Z,31.20
2018-08-03T12:51:00.591Z,31.20
2018-08-03T12:53:29.209Z,31.00
2018-08-03T12:55:57.833Z,30.90
2018-08-03T12:58:26.479Z,30.90
2018-08-03T13:00:54.918Z,30.90
2018-08-03T13:03:23.705Z,30.90
2018-08-03T13:05:52.400Z,30.80
2018-08-03T13:08:21.173Z,30.90
2018-08-03T13:10:49.787Z,30.90
2018-08-03T13:13:18.553Z,30.90
2018-08-03T13:15:47.529Z,30.90
2018-08-03T13:18:16.276Z,31.10
2018-08-03T13:20:44.927Z,31.20
2018-08-03T13:23:13.894Z,31.40
2018-08-03T13:25:42.499Z,31.20
2018-08-03T13:28:11.300Z,31.10
2018-08-03T13:30:39.952Z,31.20
2018-08-03T13:33:08.672Z,31.10
2018-08-03T13:38:06.527Z,31.20
2018-08-03T13:40:35.503Z,31.20
2018-08-03T13:43:04.163Z,31.20
2018-08-03T13:45:32.806Z,31.20
2018-08-03T13:48:01.784Z,31.10
2018-08-03T13:50:30.799Z,31.20
2018-08-03T13:52:59.466Z,31.20
2018-08-03T13:55:30.276Z,31.10
2018-08-03T13:57:59.006Z,31.00
2018-08-03T14:00:27.830Z,31.10
2018-08-03T14:02:56.489Z,31.10
2018-08-03T14:07:54.028Z,31.10
2018-08-03T14:10:22.850Z,30.90
2018-08-03T14:12:51.739Z,31.00
2018-08-03T14:15:20.477Z,31.00
2018-08-03T14:17:55.070Z,30.90
2018-08-03T14:20:23.785Z,31.00
2018-08-03T14:22:52.614Z,31.00
2018-08-03T14:25:21.276Z,31.00
2018-08-03T14:27:50.547Z,31.00
2018-08-03T14:30:19.363Z,31.10
2018-08-03T14:32:48.241Z,31.10
2018-08-03T14:35:16.890Z,31.10
2018-08-03T14:37:46.962Z,31.20
2018-08-03T14:40:16.300Z,31.20
2018-08-03T14:42:45.338Z,31.30
2018-08-03T14:45:14.728Z,31.40
2018-08-03T14:47:43.372Z,31.60
2018-08-03T14:50:12.422Z,31.90
2018-08-03T14:55:09.695Z,32.20
2018-08-03T14:57:38.325Z,32.20
2018-08-03T15:00:07.299Z,32.50
2018-08-03T15:02:36.005Z,32.70
2018-08-03T15:05:06.328Z,33.00
2018-08-03T15:07:35.035Z,33.20
2018-08-03T15:10:04.255Z,33.30
2018-08-03T15:12:32.882Z,33.50
2018-08-03T15:15:01.518Z,33.60
2018-08-03T15:17:30.205Z,33.80
2018-08-03T15:19:58.962Z,34.20
2018-08-03T15:22:27.687Z,34.00
2018-08-03T15:24:56.500Z,33.80
2018-08-03T15:27:25.345Z,33.80
2018-08-03T15:29:54.102Z,34.00
2018-08-03T15:32:23.106Z,34.10
2018-08-03T15:34:51.825Z,34.00
2018-08-03T15:37:20.432Z,34.10
2018-08-03T15:39:49.106Z,34.30
2018-08-03T15:42:17.717Z,34.70
2018-08-03T15:44:46.593Z,34.80
2018-08-03T15:47:15.324Z,34.70
2018-08-03T15:49:44.167Z,34.70
2018-08-03T15:52:12.833Z,34.90
2018-08-03T15:54:42.112Z,35.10
2018-08-03T15:57:11.072Z,35.30
2018-08-03T15:59:39.772Z,35.50
2018-08-03T16:02:08.220Z,35.60
2018-08-03T16:04:36.785Z,35.70
2018-08-03T16:07:05.355Z,35.90
2018-08-03T16:09:33.948Z,35.80
2018-08-03T16:12:02.702Z,35.90
2018-08-03T16:14:31.298Z,35.90
2018-08-03T16:19:34.851Z,36.40
2018-08-03T16:22:03.516Z,36.60
2018-08-03T16:24:32.106Z,36.60
2018-08-03T16:27:00.805Z,36.70
2018-08-03T16:29:29.406Z,36.60
2018-08-03T16:38:42.576Z,36.70
2018-08-03T16:41:11.751Z,38.00
2018-08-03T16:43:40.386Z,38.20
2018-08-03T16:46:08.984Z,38.10
2018-08-03T16:48:37.669Z,38.10
2018-08-03T16:51:06.800Z,37.90
2018-08-03T16:53:35.432Z,37.90
2018-08-03T16:56:04.040Z,37.80
2018-08-03T16:58:32.625Z,37.80
2018-08-03T17:01:01.254Z,37.60
2018-08-03T17:03:30.243Z,36.90
2018-08-03T17:08:27.168Z,36.30
2018-08-03T17:10:55.778Z,35.90
2018-08-03T17:13:24.382Z,35.10
2018-08-03T17:15:52.987Z,34.70
2018-08-03T17:18:21.607Z,34.20
2018-08-03T17:20:50.203Z,33.90
2018-08-03T17:23:18.803Z,33.60
2018-08-03T17:25:47.733Z,33.10
2018-08-03T17:28:16.334Z,32.80
2018-08-03T17:30:44.961Z,32.60
2018-08-03T17:33:13.626Z,32.40
2018-08-03T17:35:42.183Z,32.20
2018-08-03T17:40:39.391Z,31.90
2018-08-03T17:43:08.242Z,31.70
2018-08-03T17:45:36.922Z,31.60
2018-08-03T17:48:05.755Z,31.40
2018-08-03T17:53:03.148Z,31.10
2018-08-03T17:55:31.810Z,31.00
2018-08-03T17:58:00.818Z,30.80
2018-08-03T18:00:29.419Z,30.70
2018-08-03T18:02:58.145Z,30.60
2018-08-03T18:05:26.967Z,30.50
2018-08-03T18:07:55.573Z,30.40
2018-08-03T18:10:24.186Z,30.20
2018-08-03T18:12:52.829Z,30.10
2018-08-03T18:15:21.412Z,29.90
2018-08-03T18:17:50.046Z,29.90
2018-08-03T18:20:18.608Z,29.70
2018-08-03T18:22:47.812Z,29.70
2018-08-03T18:25:16.415Z,29.60
2018-08-03T18:27:45.352Z,29.40
2018-08-03T18:30:14.239Z,29.30
2018-08-03T18:32:42.832Z,29.20
2018-08-03T18:35:11.408Z,29.10
2018-08-03T18:37:40.006Z,29.00
2018-08-03T18:40:10.069Z,28.90
2018-08-03T18:42:39.282Z,28.80
2018-08-03T18:45:08.622Z,28.70
2018-08-03T18:47:37.922Z,28.60
2018-08-03T18:51:36.043Z,28.50
2018-08-03T18:54:05.347Z,28.30
2018-08-03T18:56:34.194Z,28.10
2018-08-03T18:59:03.093Z,28.00
2018-08-03T19:01:32.018Z,27.90
2018-08-03T19:04:00.914Z,27.70
2018-08-03T19:06:30.116Z,27.50
2018-08-03T19:08:59.357Z,27.40
2018-08-03T19:11:28.297Z,27.30
2018-08-03T19:13:57.223Z,27.20
2018-08-03T19:16:26.103Z,27.10
2018-08-03T19:18:55.327Z,27.00
2018-08-03T19:23:53.340Z,26.80
2018-08-03T19:26:22.209Z,26.70
2018-08-03T19:28:51.098Z,26.60
2018-08-03T19:31:19.984Z,26.50
2018-08-03T19:33:48.898Z,26.40
2018-08-03T19:36:18.044Z,26.40
2018-08-03T19:50:13.821Z,25.90
2018-08-03T19:52:42.752Z,25.90
2018-08-03T19:55:12.308Z,25.70
2018-08-03T19:57:41.197Z,25.70
2018-08-03T20:00:11.647Z,25.60
2018-08-03T20:02:40.798Z,25.60
2018-08-03T20:07:39.204Z,25.40
2018-08-03T20:12:37.642Z,25.30
2018-08-03T20:15:08.690Z,25.20
2018-08-03T20:17:38.360Z,25.10
2018-08-03T20:20:07.907Z,25.10
2018-08-03T20:22:36.889Z,25.00
2018-08-03T20:25:06.806Z,25.00
2018-08-03T20:27:37.293Z,24.90
2018-08-03T20:30:07.423Z,24.70
2018-08-03T20:32:36.522Z,24.70
2018-08-03T20:35:06.700Z,24.70
2018-08-03T20:37:35.710Z,24.60
2018-08-03T20:40:06.095Z,24.50
2018-08-03T20:42:35.042Z,24.40
2018-08-03T20:45:04.406Z,24.30
2018-08-03T20:47:33.300Z,24.30
2018-08-03T20:50:02.629Z,24.20
2018-08-03T20:52:31.737Z,24.10
2018-08-03T20:55:00.773Z,24.00
2018-08-03T20:57:30.859Z,24.00
2018-08-03T20:59:59.780Z,23.90
2018-08-03T21:02:28.733Z,23.90
2018-08-03T21:04:57.843Z,23.90
2018-08-03T21:07:26.799Z,23.90
2018-08-03T21:09:55.708Z,23.80
2018-08-03T21:12:24.644Z,23.80
2018-08-03T21:14:54.931Z,23.70
2018-08-03T21:17:23.827Z,23.60
2018-08-03T21:19:52.718Z,23.60
2018-08-03T21:22:22.032Z,23.60
2018-08-03T21:24:50.956Z,23.50
2018-08-03T21:27:19.865Z,23.40
2018-08-03T21:29:48.814Z,23.40
2018-08-03T21:32:17.710Z,23.30
2018-08-03T21:34:46.611Z,23.30
2018-08-03T21:37:15.546Z,23.30
2018-08-03T21:39:44.445Z,23.30
2018-08-03T21:42:14.302Z,23.20
2018-08-03T21:44:43.170Z,23.10
2018-08-03T21:47:12.089Z,23.10
2018-08-03T21:49:40.973Z,23.10
2018-08-03T21:52:09.858Z,23.10
2018-08-03T21:54:38.772Z,23.00
2018-08-03T21:57:07.701Z,23.00
2018-08-03T21:59:36.659Z,23.00
2018-08-03T22:02:05.737Z,22.90
2018-08-03T22:07:06.382Z,22.90
2018-08-03T22:09:35.557Z,22.90
2018-08-03T22:12:04.652Z,22.90
2018-08-03T22:14:33.732Z,22.90
2018-08-03T22:17:02.676Z,22.90
2018-08-03T22:19:31.562Z,22.90
2018-08-03T22:22:00.443Z,22.90
2018-08-03T22:24:29.345Z,22.90
2018-08-03T22:26:58.493Z,22.90
2018-08-03T22:29:27.401Z,22.90
2018-08-03T22:31:56.272Z,22.90
2018-08-03T22:34:25.195Z,22.90
2018-08-03T22:36:54.551Z,22.90
2018-08-03T22:39:23.849Z,22.80
2018-08-03T22:41:52.923Z,22.80
2018-08-03T22:44:21.866Z,22.80
2018-08-03T22:46:50.773Z,22.80
2018-08-03T22:49:19.685Z,22.80
2018-08-03T22:51:48.577Z,22.80
2018-08-03T22:54:17.590Z,22.70
2018-08-03T22:56:47.189Z,22.70
2018-08-03T22:59:16.053Z,22.70
2018-08-03T23:01:44.925Z,22.70
2018-08-03T23:04:13.863Z,22.70
2018-08-03T23:06:42.769Z,22.70
2018-08-03T23:09:11.756Z,22.70
2018-08-03T23:11:40.699Z,22.70
2018-08-03T23:14:09.596Z,22.80
2018-08-03T23:16:38.491Z,22.80
2018-08-03T23:19:07.655Z,22.80
2018-08-03T23:21:36.575Z,22.90
2018-08-03T23:24:05.441Z,22.80
2018-08-03T23:26:34.369Z,22.80
2018-08-03T23:29:03.960Z,22.80
2018-08-03T23:31:32.860Z,22.80
2018-08-03T23:36:30.860Z,22.90
2018-08-03T23:38:59.882Z,22.90
2018-08-03T23:41:28.784Z,22.90
2018-08-03T23:43:57.686Z,22.90
2018-08-03T23:46:26.955Z,23.00
2018-08-03T23:48:55.931Z,23.00
2018-08-03T23:51:24.841Z,23.00
2018-08-03T23:53:53.707Z,23.00
2018-08-03T23:56:23.042Z,23.00
2018-08-03T23:58:51.927Z,23.00
